createdAt,value
2018-12-30T00:02:36.586Z,7.60
2018-12-30T00:05:42.165Z,7.51
2018-12-30T00:08:47.278Z,7.43
2018-12-30T00:11:52.422Z,7.33
2018-12-30T00:14:57.686Z,7.30
2018-12-30T00:18:02.779Z,7.23
2018-12-30T00:21:09.152Z,7.22
2018-12-30T00:24:14.663Z,7.11
2018-12-30T00:27:20.274Z,7.03
2018-12-30T00:30:25.363Z,7.02
2018-12-30T00:33:30.477Z,6.95
2018-12-30T00:36:35.564Z,6.94
2018-12-30T00:39:40.722Z,6.86
2018-12-30T00:42:45.800Z,6.83
2018-12-30T00:45:50.910Z,6.78
2018-12-30T00:48:56.499Z,6.74
2018-12-30T00:52:01.623Z,6.77
2018-12-30T00:55:07.104Z,6.71
2018-12-30T00:58:12.227Z,6.68
2018-12-30T01:01:17.340Z,6.70
2018-12-30T01:04:22.632Z,6.65
2018-12-30T01:07:27.736Z,6.57
2018-12-30T01:10:33.246Z,6.57
2018-12-30T01:13:38.353Z,6.60
2018-12-30T01:16:43.566Z,6.59
2018-12-30T01:19:48.700Z,6.52
2018-12-30T01:22:53.807Z,6.50
2018-12-30T01:25:58.926Z,6.50
2018-12-30T01:29:04.052Z,6.51
2018-12-30T01:32:09.551Z,6.45
2018-12-30T01:35:14.661Z,6.41
2018-12-30T01:38:19.780Z,6.39
2018-12-30T01:41:24.890Z,6.35
2018-12-30T01:44:30.000Z,6.33
2018-12-30T01:47:35.148Z,6.25
2018-12-30T01:50:40.344Z,6.23
2018-12-30T01:53:45.766Z,6.23
2018-12-30T01:56:50.900Z,6.17
2018-12-30T01:59:56.012Z,6.13
2018-12-30T02:03:01.148Z,6.12
2018-12-30T02:06:06.342Z,6.08
2018-12-30T02:09:11.445Z,6.04
2018-12-30T02:12:16.563Z,6.08
2018-12-30T02:15:21.749Z,6.11
2018-12-30T02:18:26.873Z,6.13
2018-12-30T02:21:31.987Z,6.18
2018-12-30T02:24:37.114Z,6.24
2018-12-30T02:27:42.213Z,6.29
2018-12-30T02:30:47.402Z,6.33
2018-12-30T02:33:52.517Z,6.39
2018-12-30T02:36:57.627Z,6.44
2018-12-30T02:40:03.183Z,6.43
2018-12-30T02:43:08.332Z,6.46
2018-12-30T02:46:13.431Z,6.45
2018-12-30T02:49:18.582Z,6.49
2018-12-30T02:52:23.729Z,6.55
2018-12-30T02:55:28.868Z,6.52
2018-12-30T02:58:33.971Z,6.53
2018-12-30T03:01:39.136Z,6.61
2018-12-30T03:04:44.377Z,6.61
2018-12-30T03:07:49.471Z,6.64
2018-12-30T03:10:54.596Z,6.59
2018-12-30T03:13:59.710Z,6.63
2018-12-30T03:17:04.920Z,6.60
2018-12-30T03:20:10.095Z,6.57
2018-12-30T03:23:15.212Z,6.61
2018-12-30T03:26:20.317Z,6.61
2018-12-30T03:29:25.462Z,6.67
2018-12-30T03:32:30.562Z,6.76
2018-12-30T03:35:35.687Z,6.73
2018-12-30T03:38:40.801Z,6.71
2018-12-30T03:41:45.922Z,6.72
2018-12-30T03:44:51.035Z,6.86
2018-12-30T03:47:56.158Z,6.90
2018-12-30T03:51:01.236Z,6.91
2018-12-30T03:54:06.355Z,6.90
2018-12-30T03:57:11.456Z,6.91
2018-12-30T04:00:16.676Z,6.97
2018-12-30T04:03:21.795Z,7.00
2018-12-30T04:06:26.918Z,7.04
2018-12-30T04:09:32.028Z,7.03
2018-12-30T04:12:37.144Z,7.01
2018-12-30T04:15:42.235Z,7.04
2018-12-30T04:18:47.489Z,7.04
2018-12-30T04:21:52.587Z,7.02
2018-12-30T04:24:57.733Z,7.05
2018-12-30T04:28:02.849Z,7.12
2018-12-30T04:31:07.974Z,7.10
2018-12-30T04:34:13.115Z,7.13
2018-12-30T04:37:18.257Z,7.12
2018-12-30T04:40:23.365Z,7.08
2018-12-30T04:43:28.511Z,7.16
2018-12-30T04:46:33.604Z,7.12
2018-12-30T04:49:38.708Z,7.16
2018-12-30T04:52:43.843Z,7.18
2018-12-30T04:55:48.946Z,7.16
2018-12-30T04:58:54.097Z,7.15
2018-12-30T05:01:59.200Z,7.19
2018-12-30T05:05:04.337Z,7.21
2018-12-30T05:08:09.445Z,7.21
2018-12-30T05:11:14.567Z,7.21
2018-12-30T05:14:19.683Z,7.22
2018-12-30T05:17:24.810Z,7.28
2018-12-30T05:20:29.996Z,7.21
2018-12-30T05:23:35.113Z,7.23
2018-12-30T05:26:40.229Z,7.23
2018-12-30T05:29:45.365Z,7.24
2018-12-30T05:32:50.502Z,7.24
2018-12-30T05:35:55.590Z,7.30
2018-12-30T05:39:00.741Z,7.31
2018-12-30T05:42:05.840Z,7.25
2018-12-30T05:45:10.953Z,7.17
2018-12-30T05:48:16.090Z,7.16
2018-12-30T05:51:21.196Z,7.13
2018-12-30T05:54:26.306Z,7.16
2018-12-30T05:57:31.421Z,7.16
2018-12-30T06:00:36.547Z,7.16
2018-12-30T06:03:41.662Z,7.24
2018-12-30T06:06:46.799Z,7.32
2018-12-30T06:09:51.892Z,7.39
2018-12-30T06:12:57.012Z,7.42
2018-12-30T06:16:02.116Z,7.49
2018-12-30T06:19:07.246Z,7.49
2018-12-30T06:22:12.413Z,7.54
2018-12-30T06:25:17.612Z,7.54
2018-12-30T06:28:22.707Z,7.56
2018-12-30T06:31:27.851Z,7.54
2018-12-30T06:34:32.942Z,7.51
2018-12-30T06:37:38.079Z,7.53
2018-12-30T06:40:43.185Z,7.60
2018-12-30T06:43:48.325Z,7.65
2018-12-30T06:46:53.484Z,7.69
2018-12-30T06:49:58.609Z,7.71
2018-12-30T06:53:03.695Z,7.71
2018-12-30T06:56:08.891Z,7.70
2018-12-30T06:59:14.023Z,7.70
2018-12-30T07:02:19.310Z,7.69
2018-12-30T07:05:24.434Z,7.69
2018-12-30T07:08:29.534Z,7.66
2018-12-30T07:11:34.633Z,7.62
2018-12-30T07:14:39.764Z,7.62
2018-12-30T07:17:44.864Z,7.58
2018-12-30T07:20:49.989Z,7.52
2018-12-30T07:23:55.084Z,7.50
2018-12-30T07:27:00.225Z,7.54
2018-12-30T07:30:06.055Z,7.57
2018-12-30T07:33:11.196Z,7.57
2018-12-30T07:36:16.279Z,7.57
2018-12-30T07:39:21.445Z,7.54
2018-12-30T07:42:26.538Z,7.51
2018-12-30T07:45:31.669Z,7.47
2018-12-30T07:48:36.781Z,7.41
2018-12-30T07:51:41.911Z,7.43
2018-12-30T07:54:47.043Z,7.38
2018-12-30T07:57:52.265Z,7.32
2018-12-30T08:00:57.387Z,7.30
2018-12-30T08:04:02.521Z,7.27
2018-12-30T08:07:07.627Z,7.23
2018-12-30T08:10:12.757Z,7.21
2018-12-30T08:13:17.870Z,7.20
2018-12-30T08:16:23.089Z,7.22
2018-12-30T08:19:28.199Z,7.19
2018-12-30T08:22:34.695Z,7.16
2018-12-30T08:25:39.886Z,7.17
2018-12-30T08:28:45.456Z,7.17
2018-12-30T08:31:50.692Z,7.13
2018-12-30T08:34:55.935Z,7.10
2018-12-30T08:38:01.032Z,7.10
2018-12-30T08:41:06.262Z,7.07
2018-12-30T08:44:11.361Z,7.03
2018-12-30T08:47:16.503Z,7.03
2018-12-30T08:50:21.607Z,7.11
2018-12-30T08:53:29.483Z,7.17
2018-12-30T08:56:33.572Z,7.26
2018-12-30T08:59:38.685Z,7.33
2018-12-30T09:02:43.817Z,7.41
2018-12-30T09:05:48.970Z,7.51
2018-12-30T09:08:54.074Z,7.50
2018-12-30T09:11:59.217Z,7.50
2018-12-30T09:15:04.399Z,7.47
2018-12-30T09:18:09.547Z,7.49
2018-12-30T09:21:14.659Z,7.46
2018-12-30T09:24:19.801Z,7.53
2018-12-30T09:27:24.933Z,7.57
2018-12-30T09:30:30.722Z,7.61
2018-12-30T09:33:35.817Z,7.67
2018-12-30T09:36:40.957Z,7.71
2018-12-30T09:39:46.147Z,7.75
2018-12-30T09:42:51.288Z,7.79
2018-12-30T09:45:56.405Z,8.08
2018-12-30T09:49:01.523Z,8.21
2018-12-30T09:52:06.740Z,8.34
2018-12-30T09:55:11.935Z,8.42
2018-12-30T09:58:17.064Z,8.31
2018-12-30T10:01:22.306Z,8.11
2018-12-30T10:04:27.387Z,8.02
2018-12-30T10:07:32.497Z,8.01
2018-12-30T10:10:37.638Z,8.02
2018-12-30T10:13:42.776Z,8.05
2018-12-30T10:16:47.925Z,8.04
2018-12-30T10:19:53.043Z,8.07
2018-12-30T10:22:58.910Z,8.07
2018-12-30T10:26:04.373Z,8.03
2018-12-30T10:29:09.532Z,8.07
2018-12-30T10:32:14.651Z,8.09
2018-12-30T10:35:19.793Z,8.08
2018-12-30T10:38:24.937Z,8.08
2018-12-30T10:41:30.061Z,8.13
2018-12-30T10:44:35.180Z,8.11
2018-12-30T10:47:40.288Z,8.05
2018-12-30T10:50:45.428Z,8.04
2018-12-30T10:53:50.546Z,8.08
2018-12-30T10:56:55.644Z,8.10
2018-12-30T11:00:00.797Z,8.14
2018-12-30T11:03:06.005Z,8.22
2018-12-30T11:06:11.147Z,8.25
2018-12-30T11:09:16.250Z,8.32
2018-12-30T11:12:21.427Z,8.32
2018-12-30T11:15:26.548Z,8.34
2018-12-30T11:18:31.873Z,8.33
2018-12-30T11:21:37.161Z,8.36
2018-12-30T11:24:42.278Z,8.38
2018-12-30T11:27:47.422Z,8.38
2018-12-30T11:30:52.569Z,8.40
2018-12-30T11:33:57.772Z,8.36
2018-12-30T11:37:02.998Z,8.39
2018-12-30T11:40:08.425Z,8.38
2018-12-30T11:43:13.563Z,8.45
2018-12-30T11:46:18.685Z,8.42
2018-12-30T11:49:23.820Z,8.43
2018-12-30T11:52:28.978Z,8.46
2018-12-30T11:55:34.166Z,8.44
2018-12-30T11:58:39.378Z,8.46
2018-12-30T12:01:44.645Z,8.45
2018-12-30T12:04:49.791Z,8.43
2018-12-30T12:07:54.967Z,8.39
2018-12-30T12:11:00.109Z,8.35
2018-12-30T12:14:05.358Z,8.35
2018-12-30T12:17:10.481Z,8.36
2018-12-30T12:20:15.580Z,8.35
2018-12-30T12:23:20.732Z,8.40
2018-12-30T12:26:25.849Z,8.39
2018-12-30T12:29:30.973Z,8.37
2018-12-30T12:32:36.097Z,8.36
2018-12-30T12:35:41.241Z,8.31
2018-12-30T12:38:46.388Z,8.30
2018-12-30T12:41:51.523Z,8.27
2018-12-30T12:44:56.671Z,8.25
2018-12-30T12:48:01.771Z,8.22
2018-12-30T12:51:07.051Z,8.28
2018-12-30T12:54:12.166Z,8.31
2018-12-30T12:57:17.315Z,8.38
2018-12-30T13:00:22.524Z,8.44
2018-12-30T13:03:27.683Z,8.48
2018-12-30T13:06:32.805Z,8.47
2018-12-30T13:09:37.950Z,8.41
2018-12-30T13:12:43.106Z,8.35
2018-12-30T13:15:48.218Z,8.36
2018-12-30T13:18:53.349Z,8.38
2018-12-30T13:21:58.447Z,8.33
2018-12-30T13:25:03.673Z,8.28
2018-12-30T13:28:08.791Z,8.24
2018-12-30T13:31:13.996Z,8.17
2018-12-30T13:34:19.160Z,8.19
2018-12-30T13:37:24.270Z,8.17
2018-12-30T13:40:29.420Z,8.23
2018-12-30T13:43:34.530Z,8.13
2018-12-30T13:46:39.651Z,8.05
2018-12-30T13:49:44.815Z,8.05
2018-12-30T13:52:49.944Z,7.98
2018-12-30T13:55:55.114Z,8.02
2018-12-30T13:59:00.237Z,8.02
2018-12-30T14:02:05.516Z,7.99
2018-12-30T14:05:10.794Z,7.94
2018-12-30T14:08:16.776Z,7.89
2018-12-30T14:11:21.910Z,7.82
2018-12-30T14:14:27.066Z,7.81
2018-12-30T14:17:32.192Z,7.73
2018-12-30T14:20:37.320Z,7.68
2018-12-30T14:23:42.446Z,7.68
2018-12-30T14:26:47.582Z,7.66
2018-12-30T14:29:52.689Z,7.65
2018-12-30T14:32:57.806Z,7.61
2018-12-30T14:36:02.979Z,7.56
2018-12-30T14:39:09.462Z,7.56
2018-12-30T14:42:14.599Z,7.56
2018-12-30T14:45:19.874Z,7.53
2018-12-30T14:48:25.014Z,7.50
2018-12-30T14:51:30.148Z,7.47
2018-12-30T14:54:35.329Z,7.41
2018-12-30T14:57:40.461Z,7.42
2018-12-30T15:00:45.678Z,7.38
2018-12-30T15:03:50.800Z,7.35
2018-12-30T15:06:56.039Z,7.36
2018-12-30T15:10:01.175Z,7.30
2018-12-30T15:13:06.356Z,7.24
2018-12-30T15:16:11.563Z,7.21
2018-12-30T15:19:16.697Z,7.21
2018-12-30T15:22:21.810Z,7.19
2018-12-30T15:25:27.026Z,7.09
2018-12-30T15:28:32.213Z,7.04
2018-12-30T15:31:37.415Z,6.93
2018-12-30T15:34:42.535Z,6.85
2018-12-30T15:37:47.646Z,6.82
2018-12-30T15:40:52.775Z,6.80
2018-12-30T15:43:57.910Z,6.71
2018-12-30T15:47:03.017Z,6.62
2018-12-30T15:50:09.566Z,6.54
2018-12-30T15:53:14.673Z,6.52
2018-12-30T15:56:19.792Z,6.52
2018-12-30T15:59:24.913Z,6.44
2018-12-30T16:02:32.454Z,6.45
2018-12-30T16:05:37.754Z,6.45
2018-12-30T16:08:42.870Z,6.33
2018-12-30T16:11:47.978Z,6.21
2018-12-30T16:14:53.133Z,6.18
2018-12-30T16:17:58.326Z,6.13
2018-12-30T16:21:03.473Z,6.12
2018-12-30T16:24:08.596Z,6.12
2018-12-30T16:27:13.763Z,6.07
2018-12-30T16:30:18.949Z,6.05
2018-12-30T16:33:24.060Z,6.08
2018-12-30T16:36:29.216Z,6.07
2018-12-30T16:39:34.382Z,6.04
2018-12-30T16:42:39.581Z,6.02
2018-12-30T16:45:44.884Z,6.07
2018-12-30T16:48:50.187Z,6.08
2018-12-30T16:51:55.866Z,6.14
2018-12-30T16:55:01.031Z,6.21
2018-12-30T16:58:06.674Z,6.18
2018-12-30T17:01:12.641Z,6.13
2018-12-30T17:04:30.452Z,6.09
2018-12-30T17:07:36.836Z,6.13
2018-12-30T17:10:41.974Z,6.09
2018-12-30T17:13:47.264Z,6.12
2018-12-30T17:16:52.925Z,6.14
2018-12-30T17:19:58.268Z,6.14
2018-12-30T17:23:03.552Z,6.07
2018-12-30T17:26:37.276Z,6.11
2018-12-30T17:29:42.636Z,6.08
2018-12-30T17:32:47.933Z,6.05
2018-12-30T17:36:09.352Z,6.08
2018-12-30T17:39:14.556Z,6.09
2018-12-30T17:42:19.885Z,6.10
2018-12-30T17:45:25.137Z,6.12
2018-12-30T17:48:30.850Z,6.12
2018-12-30T17:51:36.058Z,6.09
2018-12-30T17:54:42.718Z,6.08
2018-12-30T17:57:47.848Z,6.10
2018-12-30T18:00:56.473Z,6.13
2018-12-30T18:04:01.720Z,6.12
2018-12-30T18:07:06.989Z,6.08
2018-12-30T18:10:12.305Z,6.04
2018-12-30T18:13:17.514Z,6.00
2018-12-30T18:16:22.830Z,6.02
2018-12-30T18:19:28.072Z,6.01
2018-12-30T18:22:33.300Z,6.02
2018-12-30T18:25:38.779Z,6.08
2018-12-30T18:28:43.994Z,6.11
2018-12-30T18:31:49.354Z,6.10
2018-12-30T18:34:54.545Z,6.12
2018-12-30T18:37:59.803Z,6.10
2018-12-30T18:41:05.139Z,6.11
2018-12-30T18:44:10.352Z,6.08
2018-12-30T18:47:15.609Z,6.04
2018-12-30T18:50:20.949Z,5.99
2018-12-30T18:53:26.290Z,5.96
2018-12-30T18:56:31.629Z,5.88
2018-12-30T18:59:36.875Z,5.85
2018-12-30T19:02:42.187Z,5.81
2018-12-30T19:05:47.501Z,5.76
2018-12-30T19:08:52.701Z,5.74
2018-12-30T19:11:57.966Z,5.67
2018-12-30T19:15:03.128Z,5.62
2018-12-30T19:18:08.323Z,5.56
2018-12-30T19:21:13.555Z,5.51
2018-12-30T19:24:18.817Z,5.47
2018-12-30T19:27:24.295Z,5.43
2018-12-30T19:30:29.501Z,5.37
2018-12-30T19:33:34.733Z,5.31
2018-12-30T19:36:40.001Z,5.26
2018-12-30T19:39:45.268Z,5.23
2018-12-30T19:42:50.568Z,5.22
2018-12-30T19:45:55.805Z,5.20
2018-12-30T19:49:00.929Z,5.17
2018-12-30T19:52:06.198Z,5.14
2018-12-30T19:55:11.420Z,5.04
2018-12-30T19:58:16.526Z,4.98
2018-12-30T20:01:21.675Z,4.96
2018-12-30T20:04:26.805Z,4.92
2018-12-30T20:07:31.957Z,4.88
2018-12-30T20:10:37.062Z,4.81
2018-12-30T20:13:42.295Z,4.76
2018-12-30T20:16:47.474Z,4.73
2018-12-30T20:19:52.660Z,4.70
2018-12-30T20:22:57.831Z,4.66
2018-12-30T20:26:03.179Z,4.63
2018-12-30T20:29:08.330Z,4.65
2018-12-30T20:32:13.497Z,4.65
2018-12-30T20:35:18.716Z,4.66
2018-12-30T20:38:23.946Z,4.68
2018-12-30T20:41:29.114Z,4.69
2018-12-30T20:44:34.342Z,4.72
2018-12-30T20:47:39.439Z,4.75
2018-12-30T20:50:44.620Z,4.76
2018-12-30T20:53:49.723Z,4.80
2018-12-30T20:56:54.892Z,4.86
2018-12-30T21:00:00.019Z,4.93
2018-12-30T21:03:05.241Z,4.98
2018-12-30T21:06:10.362Z,4.98
2018-12-30T21:09:15.555Z,4.98
2018-12-30T21:12:20.646Z,4.98
2018-12-30T21:15:25.857Z,5.02
2018-12-30T21:18:30.952Z,5.05
2018-12-30T21:21:36.101Z,5.05
2018-12-30T21:24:41.192Z,5.05
2018-12-30T21:27:46.302Z,5.03
2018-12-30T21:30:51.419Z,5.01
2018-12-30T21:33:56.549Z,4.99
2018-12-30T21:37:01.670Z,4.98
2018-12-30T21:40:07.787Z,4.98
2018-12-30T21:43:13.004Z,4.95
2018-12-30T21:46:18.133Z,4.93
2018-12-30T21:49:23.242Z,4.90
2018-12-30T21:52:28.345Z,4.92
2018-12-30T21:55:33.470Z,4.92
2018-12-30T21:58:38.611Z,4.92
2018-12-30T22:01:43.687Z,4.92
2018-12-30T22:04:48.821Z,4.91
2018-12-30T22:07:53.944Z,4.89
2018-12-30T22:10:59.074Z,4.88
2018-12-30T22:14:04.252Z,4.87
2018-12-30T22:17:09.457Z,4.90
2018-12-30T22:20:14.569Z,4.93
2018-12-30T22:23:19.662Z,4.95
2018-12-30T22:26:24.778Z,4.95
2018-12-30T22:29:29.877Z,4.97
2018-12-30T22:32:34.999Z,4.98
2018-12-30T22:35:40.261Z,4.96
2018-12-30T22:38:45.370Z,4.93
2018-12-30T22:41:50.626Z,4.89
2018-12-30T22:44:55.718Z,4.86
2018-12-30T22:48:00.818Z,4.81
2018-12-30T22:51:05.941Z,4.76
2018-12-30T22:54:11.029Z,4.71
2018-12-30T22:57:16.147Z,4.68
2018-12-30T23:00:39.600Z,4.64
2018-12-30T23:03:44.692Z,4.63
2018-12-30T23:06:49.830Z,4.60
2018-12-30T23:09:54.917Z,4.56
2018-12-30T23:13:00.019Z,4.56
2018-12-30T23:16:05.175Z,4.55
2018-12-30T23:19:10.248Z,4.55
2018-12-30T23:22:15.364Z,4.55
2018-12-30T23:25:20.465Z,4.57
2018-12-30T23:28:25.559Z,4.54
2018-12-30T23:31:30.721Z,4.52
2018-12-30T23:34:35.841Z,4.50
2018-12-30T23:37:40.954Z,4.49
2018-12-30T23:40:46.167Z,4.49
2018-12-30T23:43:51.293Z,4.48
2018-12-30T23:46:56.376Z,4.47
2018-12-30T23:50:01.520Z,4.45
2018-12-30T23:53:06.617Z,4.40
2018-12-30T23:56:11.805Z,4.36
2018-12-30T23:59:16.987Z,4.34
